Terminal Aerodrome Forecast
Issued by NWS

Home | Current Version | Previous Version | Text Only | Print | Product List | Glossary On
Versions: 1 2 3 4 5 6 7 8 9 10 11 12 13 14 15 16 17 18 19 20 21 22 23 24 25 26 27 28 29 30 31
000
FTUS41 KBOX 210520
TAFACK
TAF
KACK 210520Z 2106/2206 27012KT P6SM FEW140
     FM211200 23012G21KT P6SM SKC
     FM211700 22017G31KT P6SM FEW250=

USA.gov is the U.S. government's official web portal to all federal, state and local government web resources and services.